Time;durP1;ratioP1;P1;durP2;ratioP2;P2;SDS_P1;SDS_P2;PMS_P1;PMS_P2;Temp;Humidity;BMP_temperature;BMP_pressure;BME280_temperature;BME280_humidity;BME280_pressure;Samples;Min_cycle;Max_cycle;Signal;HPM_P1;HPM_P2
2020/12/24 00:00:26;;;;;;;0.53;0.50;;;13.00;99.90;;;;;;4991769;28;20223;-64
2020/12/24 00:02:52;;;;;;;1.77;0.77;;;13.00;99.90;;;;;;4991766;28;20211;-65
2020/12/24 00:05:19;;;;;;;1.03;0.63;;;13.10;99.90;;;;;;4991413;28;20477;-63
2020/12/24 00:07:46;;;;;;;1.63;0.60;;;13.00;99.90;;;;;;4991610;28;20220;-65
2020/12/24 00:10:12;;;;;;;1.10;0.70;;;13.00;99.90;;;;;;4991152;28;20210;-65
2020/12/24 00:12:38;;;;;;;1.60;0.83;;;13.00;99.90;;;;;;4991765;28;20268;-64
2020/12/24 00:15:05;;;;;;;1.03;0.70;;;13.00;99.90;;;;;;4991339;28;20220;-62
2020/12/24 00:17:32;;;;;;;2.70;1.20;;;13.00;99.90;;;;;;4991485;28;20219;-64
2020/12/24 00:19:58;;;;;;;1.73;0.90;;;13.10;99.90;;;;;;4990844;28;20215;-63
2020/12/24 00:22:26;;;;;;;3.80;0.80;;;13.10;99.90;;;;;;4991512;28;20216;-64
2020/12/24 00:24:52;;;;;;;1.27;0.63;;;12.90;99.90;;;;;;4991589;28;20211;-64
2020/12/24 00:27:18;;;;;;;0.70;0.60;;;12.90;99.90;;;;;;4991480;28;20215;-64
2020/12/24 00:29:45;;;;;;;0.80;0.60;;;12.80;99.90;;;;;;4991156;28;20218;-62
2020/12/24 00:32:11;;;;;;;1.33;0.70;;;12.80;99.90;;;;;;4991258;28;20232;-63
2020/12/24 00:34:37;;;;;;;1.40;0.50;;;12.90;99.90;;;;;;4991044;28;20583;-64
2020/12/24 00:37:03;;;;;;;0.53;0.50;;;12.90;99.90;;;;;;4991402;28;20252;-64
2020/12/24 00:39:30;;;;;;;2.33;1.13;;;12.80;99.90;;;;;;4990978;28;20242;-64
2020/12/24 00:41:57;;;;;;;1.43;0.67;;;12.80;99.90;;;;;;4991648;28;20264;-64
2020/12/24 00:44:23;;;;;;;2.70;0.67;;;12.70;99.90;;;;;;4991560;28;20208;-64
2020/12/24 00:46:50;;;;;;;0.50;0.47;;;12.80;99.90;;;;;;4991383;28;20216;-64
2020/12/24 00:49:16;;;;;;;0.80;0.40;;;12.80;99.90;;;;;;4990989;28;20226;-64
2020/12/24 00:51:42;;;;;;;1.07;0.30;;;12.80;99.90;;;;;;4990774;28;20719;-65
2020/12/24 00:54:08;;;;;;;0.93;0.50;;;12.80;99.90;;;;;;4990534;28;20286;-64
2020/12/24 00:56:35;;;;;;;1.17;0.47;;;12.80;99.90;;;;;;4991111;28;20231;-64
2020/12/24 00:59:02;;;;;;;1.27;0.40;;;12.70;99.90;;;;;;4990717;28;20380;-64
2020/12/24 01:01:28;;;;;;;2.77;0.30;;;12.60;99.90;;;;;;4990853;28;20665;-64
2020/12/24 01:03:54;;;;;;;2.10;0.40;;;12.60;99.90;;;;;;4990521;28;20208;-64
2020/12/24 01:06:20;;;;;;;2.10;0.50;;;12.50;99.90;;;;;;4990797;28;20212;-64
2020/12/24 01:08:46;;;;;;;0.93;0.20;;;12.40;99.90;;;;;;4991011;28;20210;-64
2020/12/24 01:11:13;;;;;;;2.30;0.30;;;12.40;99.90;;;;;;4990752;28;20713;-64
2020/12/24 01:13:40;;;;;;;0.63;0.30;;;12.30;99.90;;;;;;4990633;28;20212;-64
2020/12/24 01:16:07;;;;;;;0.33;0.30;;;12.20;99.90;;;;;;4990557;28;20666;-64
2020/12/24 01:18:33;;;;;;;1.83;0.63;;;12.10;99.90;;;;;;4990868;28;20227;-62
2020/12/24 01:20:59;;;;;;;2.67;0.70;;;12.10;99.90;;;;;;4991145;28;20227;-65
2020/12/24 01:23:26;;;;;;;1.33;0.40;;;12.10;99.90;;;;;;4990257;28;20214;-65
2020/12/24 01:25:52;;;;;;;1.37;0.60;;;12.20;99.90;;;;;;4990486;28;20211;-64
2020/12/24 01:28:18;;;;;;;0.50;0.27;;;12.20;99.90;;;;;;4990445;28;20233;-64
2020/12/24 01:30:45;;;;;;;0.80;0.37;;;12.10;99.90;;;;;;4990431;28;20224;-64
2020/12/24 01:33:11;;;;;;;0.90;0.57;;;12.10;99.90;;;;;;4990360;28;20208;-64
2020/12/24 01:35:37;;;;;;;1.23;0.57;;;12.10;99.90;;;;;;4989816;28;20557;-64
2020/12/24 01:38:03;;;;;;;1.83;0.30;;;12.00;99.90;;;;;;4990012;28;20234;-65
2020/12/24 01:40:30;;;;;;;1.03;0.40;;;12.00;99.90;;;;;;4990325;28;20232;-64
2020/12/24 01:42:56;;;;;;;3.70;0.60;;;11.90;99.90;;;;;;4989986;28;20691;-64
2020/12/24 01:45:22;;;;;;;4.13;0.60;;;12.00;99.90;;;;;;4989763;28;20264;-64
2020/12/24 01:47:49;;;;;;;1.70;0.67;;;11.90;99.90;;;;;;4989527;28;20212;-64
2020/12/24 01:50:15;;;;;;;2.10;0.50;;;11.90;99.90;;;;;;4989814;28;20254;-64
2020/12/24 01:52:41;;;;;;;1.07;0.37;;;12.00;99.90;;;;;;4990208;28;20260;-64
2020/12/24 01:55:09;;;;;;;1.53;0.60;;;12.00;99.90;;;;;;4990007;28;20313;-64
2020/12/24 01:57:36;;;;;;;3.50;0.40;;;12.00;99.90;;;;;;4989673;28;20588;-64
2020/12/24 02:00:05;;;;;;;1.53;0.40;;;12.00;99.90;;;;;;4989643;28;20207;-64
2020/12/24 02:02:31;;;;;;;0.83;0.33;;;12.10;99.90;;;;;;4989748;28;20273;-64
2020/12/24 02:04:58;;;;;;;1.13;0.60;;;12.00;99.90;;;;;;4989980;28;20212;-64
2020/12/24 02:07:24;;;;;;;1.03;0.40;;;12.10;99.90;;;;;;4989633;28;20207;-64
2020/12/24 02:09:51;;;;;;;2.83;0.67;;;12.00;99.90;;;;;;4989744;28;20214;-64
2020/12/24 02:12:18;;;;;;;1.83;0.47;;;12.00;99.90;;;;;;4989659;28;20509;-64
2020/12/24 02:14:45;;;;;;;2.33;0.70;;;12.00;99.90;;;;;;4989289;28;20207;-64
2020/12/24 02:17:11;;;;;;;0.77;0.50;;;12.00;99.90;;;;;;4990139;28;20272;-64
2020/12/24 02:19:40;;;;;;;1.40;0.50;;;12.00;99.90;;;;;;4989471;28;20228;-64
2020/12/24 02:22:08;;;;;;;2.10;0.50;;;11.90;99.90;;;;;;4989386;28;20782;-64
2020/12/24 02:24:36;;;;;;;2.17;0.60;;;11.90;99.90;;;;;;4989351;28;20207;-64
2020/12/24 02:27:03;;;;;;;1.33;0.40;;;11.90;99.90;;;;;;4989496;28;20283;-65
2020/12/24 02:29:29;;;;;;;1.63;0.50;;;11.90;99.90;;;;;;4989225;28;20207;-64
2020/12/24 02:31:55;;;;;;;2.63;0.60;;;11.90;99.90;;;;;;4989519;28;20232;-64
2020/12/24 02:34:21;;;;;;;1.33;0.60;;;11.90;99.90;;;;;;4989505;28;20207;-64
2020/12/24 02:36:47;;;;;;;9.13;7.60;;;11.70;99.90;;;;;;4989471;28;20281;-64
2020/12/24 02:39:14;;;;;;;3.67;2.80;;;11.60;99.90;;;;;;4989081;28;20224;-64
2020/12/24 02:41:40;;;;;;;2.93;1.60;;;11.50;99.90;;;;;;4989032;28;20227;-64
2020/12/24 02:44:07;;;;;;;1.60;0.80;;;11.50;99.90;;;;;;4989028;28;20239;-65
2020/12/24 02:46:33;;;;;;;2.20;0.70;;;11.50;99.90;;;;;;4989543;28;20656;-64
2020/12/24 02:48:59;;;;;;;1.87;0.70;;;11.50;99.90;;;;;;4989183;28;20204;-64
2020/12/24 02:51:25;;;;;;;2.73;0.57;;;11.50;99.90;;;;;;4989270;28;20281;-64
2020/12/24 02:53:51;;;;;;;2.03;0.73;;;11.50;99.90;;;;;;4988992;28;20207;-64
2020/12/24 02:56:19;;;;;;;0.70;0.40;;;11.50;99.90;;;;;;4989012;28;20643;-64
2020/12/24 02:58:45;;;;;;;1.37;0.53;;;11.50;99.90;;;;;;4988793;28;20292;-64
2020/12/24 03:01:11;;;;;;;0.90;0.40;;;11.50;99.90;;;;;;4988607;28;20227;-64
2020/12/24 03:03:37;;;;;;;0.80;0.60;;;11.50;99.90;;;;;;4988924;28;20204;-64
2020/12/24 03:06:03;;;;;;;1.67;0.50;;;11.50;99.90;;;;;;4988906;28;20204;-64
2020/12/24 03:08:29;;;;;;;0.73;0.50;;;11.50;99.90;;;;;;4988755;28;20703;-62
2020/12/24 03:10:56;;;;;;;0.90;0.40;;;11.30;99.90;;;;;;4989582;28;20726;-63
2020/12/24 03:13:23;;;;;;;2.00;0.63;;;11.30;99.90;;;;;;4989270;28;20262;-62
2020/12/24 03:15:49;;;;;;;2.77;0.80;;;11.40;99.90;;;;;;4988660;28;20671;-63
2020/12/24 03:18:15;;;;;;;2.90;0.63;;;11.30;99.90;;;;;;4988584;28;20232;-62
2020/12/24 03:20:42;;;;;;;4.47;0.83;;;11.30;99.90;;;;;;4988076;28;20231;-63
2020/12/24 03:23:08;;;;;;;1.10;0.40;;;11.30;99.90;;;;;;4989086;28;20210;-63
2020/12/24 03:25:34;;;;;;;1.10;0.50;;;11.30;99.90;;;;;;4988602;28;20668;-64
2020/12/24 03:28:00;;;;;;;0.63;0.30;;;11.30;99.90;;;;;;4988441;28;20207;-64
2020/12/24 03:30:27;;;;;;;3.00;0.40;;;11.40;99.90;;;;;;4988735;28;20228;-64
2020/12/24 03:32:53;;;;;;;1.40;0.30;;;11.40;99.90;;;;;;4988972;28;20257;-64
2020/12/24 03:35:20;;;;;;;1.93;0.73;;;11.40;99.90;;;;;;4988695;28;20208;-64
2020/12/24 03:37:46;;;;;;;2.57;0.53;;;11.50;99.90;;;;;;4988266;28;20219;-64
2020/12/24 03:40:12;;;;;;;1.23;0.40;;;11.40;99.90;;;;;;4988373;28;20207;-64
2020/12/24 03:42:38;;;;;;;1.03;0.53;;;11.40;99.90;;;;;;4988350;28;20566;-64
2020/12/24 03:45:04;;;;;;;1.87;0.50;;;11.40;99.90;;;;;;4988643;28;20207;-64
2020/12/24 03:47:31;;;;;;;0.50;0.23;;;11.40;99.90;;;;;;4989211;28;20212;-64
2020/12/24 03:49:57;;;;;;;1.77;0.40;;;11.40;99.90;;;;;;4988283;28;20211;-63
2020/12/24 03:52:24;;;;;;;0.63;0.20;;;11.30;99.90;;;;;;4988412;28;20222;-64
2020/12/24 03:54:50;;;;;;;2.00;0.40;;;11.10;99.90;;;;;;4988102;28;20264;-64
2020/12/24 03:57:16;;;;;;;0.90;0.30;;;11.10;99.90;;;;;;4988433;28;20207;-64
2020/12/24 03:59:42;;;;;;;0.20;0.20;;;11.10;99.90;;;;;;4988020;28;20284;-64
2020/12/24 04:02:08;;;;;;;2.00;0.30;;;11.10;99.90;;;;;;4988351;28;20250;-64
2020/12/24 04:04:35;;;;;;;2.13;0.43;;;11.10;99.90;;;;;;4988129;28;20212;-64
2020/12/24 04:07:01;;;;;;;0.73;0.33;;;11.00;99.90;;;;;;4987877;28;20624;-64
2020/12/24 04:09:28;;;;;;;0.50;0.20;;;10.90;99.90;;;;;;4988047;28;20564;-64
2020/12/24 04:11:54;;;;;;;0.83;0.40;;;10.90;99.90;;;;;;4987703;28;20231;-64
2020/12/24 04:14:20;;;;;;;0.83;0.20;;;10.80;99.90;;;;;;4988074;28;20212;-64
2020/12/24 04:16:46;;;;;;;0.30;0.20;;;10.70;99.90;;;;;;4987938;28;20204;-64
2020/12/24 04:19:12;;;;;;;2.07;0.40;;;10.70;99.90;;;;;;4987843;28;20715;-64
2020/12/24 04:21:39;;;;;;;0.27;0.27;;;10.80;99.90;;;;;;4988138;28;20231;-64
2020/12/24 04:24:05;;;;;;;1.50;0.33;;;10.70;99.90;;;;;;4987884;28;20215;-63
2020/12/24 04:26:32;;;;;;;0.57;0.30;;;10.70;99.90;;;;;;4988385;28;20212;-64
2020/12/24 04:28:58;;;;;;;0.77;0.40;;;10.60;99.90;;;;;;4988040;28;20215;-64
2020/12/24 04:31:24;;;;;;;1.07;0.40;;;10.50;99.90;;;;;;4989758;28;20227;-63
2020/12/24 04:33:51;;;;;;;1.70;0.30;;;10.60;99.90;;;;;;4991091;28;20208;-64
2020/12/24 04:36:17;;;;;;;2.93;0.40;;;10.50;99.90;;;;;;4991144;28;20307;-63
2020/12/24 04:38:44;;;;;;;2.23;0.67;;;10.40;99.90;;;;;;4991373;28;20318;-63
2020/12/24 04:41:10;;;;;;;2.17;0.60;;;10.40;99.90;;;;;;4990791;28;20238;-63
2020/12/24 04:43:38;;;;;;;1.97;0.60;;;10.30;99.90;;;;;;4991039;28;20204;-64
2020/12/24 04:46:06;;;;;;;2.57;0.60;;;10.40;99.90;;;;;;4991757;28;20216;-64
2020/12/24 04:48:33;;;;;;;0.90;0.40;;;10.40;99.90;;;;;;4991258;28;20219;-63
2020/12/24 04:51:02;;;;;;;2.87;0.60;;;10.30;99.90;;;;;;4990865;28;20246;-63
2020/12/24 04:53:28;;;;;;;2.03;0.60;;;10.30;99.90;;;;;;4991146;28;20259;-63
2020/12/24 04:55:55;;;;;;;1.37;0.33;;;10.30;99.90;;;;;;4991015;28;20215;-63
2020/12/24 04:58:23;;;;;;;0.43;0.27;;;10.40;99.90;;;;;;4990595;28;20702;-63
2020/12/24 05:00:51;;;;;;;0.70;0.33;;;10.40;99.90;;;;;;4991250;28;20224;-63
2020/12/24 05:03:17;;;;;;;0.63;0.40;;;10.20;99.90;;;;;;4991104;28;20219;-64
2020/12/24 05:05:44;;;;;;;0.93;0.30;;;10.20;99.90;;;;;;4990812;28;20204;-63
2020/12/24 05:08:10;;;;;;;0.50;0.50;;;10.20;99.90;;;;;;4990515;28;20210;-63
2020/12/24 05:10:38;;;;;;;1.63;0.40;;;10.30;99.90;;;;;;4990630;28;20260;-63
2020/12/24 05:13:16;;;;;;;0.87;0.37;;;10.30;99.90;;;;;;4990954;28;20215;-63
2020/12/24 05:15:42;;;;;;;0.53;0.40;;;10.30;99.90;;;;;;4991142;28;20196;-63
2020/12/24 05:18:18;;;;;;;0.77;0.43;;;10.30;99.90;;;;;;4990705;28;20674;-64
2020/12/24 05:20:45;;;;;;;0.63;0.10;;;10.30;99.90;;;;;;4990110;28;20310;-63
2020/12/24 05:23:16;;;;;;;2.03;0.37;;;10.20;99.90;;;;;;4990574;28;20234;-63
2020/12/24 05:25:44;;;;;;;0.60;0.30;;;10.30;99.90;;;;;;4990445;28;20230;-64
2020/12/24 05:28:21;;;;;;;0.77;0.30;;;10.50;99.90;;;;;;4990180;28;20208;-64
2020/12/24 05:30:47;;;;;;;1.87;0.87;;;10.60;99.90;;;;;;4990185;28;20232;-63
2020/12/24 05:33:29;;;;;;;0.37;0.30;;;10.80;99.90;;;;;;4990288;28;20204;-63
2020/12/24 05:36:14;;;;;;;1.20;0.30;;;10.90;99.90;;;;;;4990074;28;20611;-63
2020/12/24 05:38:41;;;;;;;1.03;0.40;;;10.90;99.90;;;;;;4990084;28;20230;-63
2020/12/24 05:41:40;;;;;;;0.30;0.27;;;10.80;99.90;;;;;;4990251;28;20231;-63
2020/12/24 05:44:09;;;;;;;4.47;1.10;;;10.60;99.90;;;;;;4989691;28;20212;-63
2020/12/24 05:46:41;;;;;;;0.90;0.33;;;10.50;99.90;;;;;;4990165;28;20302;-63
2020/12/24 05:49:15;;;;;;;3.53;1.07;;;10.30;99.90;;;;;;4989726;28;20706;-63
2020/12/24 05:51:46;;;;;;;0.93;0.53;;;10.20;99.90;;;;;;4989955;28;20296;-63
2020/12/24 05:54:14;;;;;;;0.80;0.60;;;10.00;99.90;;;;;;4989744;28;20278;-63
2020/12/24 05:56:40;;;;;;;0.73;0.40;;;9.80;99.90;;;;;;4990423;28;20211;-63
2020/12/24 05:59:12;;;;;;;1.70;0.40;;;9.70;99.90;;;;;;4989779;28;20227;-63
2020/12/24 06:01:39;;;;;;;2.07;0.50;;;9.60;99.90;;;;;;4989680;28;20231;-63
2020/12/24 06:04:09;;;;;;;0.77;0.30;;;9.50;99.90;;;;;;4989566;28;20235;-63
2020/12/24 06:06:44;;;;;;;2.57;0.67;;;9.40;99.90;;;;;;4989753;28;20280;-63
2020/12/24 06:09:13;;;;;;;3.97;0.30;;;9.30;99.90;;;;;;4989859;28;20203;-63
2020/12/24 06:11:45;;;;;;;2.23;0.60;;;9.30;99.90;;;;;;4989401;28;20585;-62
2020/12/24 06:14:31;;;;;;;1.93;0.40;;;9.30;99.90;;;;;;4989572;28;20713;-62
2020/12/24 06:17:06;;;;;;;1.37;0.70;;;9.50;99.90;;;;;;4989721;28;20203;-62
2020/12/24 06:19:42;;;;;;;5.20;1.90;;;9.60;99.90;;;;;;4989516;28;20651;-63
2020/12/24 06:22:08;;;;;;;2.50;1.40;;;9.70;99.90;;;;;;4989866;28;20277;-63
2020/12/24 06:24:39;;;;;;;2.30;0.93;;;9.60;99.90;;;;;;4989695;28;20204;-62
2020/12/24 06:27:10;;;;;;;4.23;1.23;;;9.70;99.90;;;;;;4990016;28;20208;-63
2020/12/24 06:29:41;;;;;;;2.20;0.93;;;9.70;99.90;;;;;;4989486;28;20188;-62
2020/12/24 06:32:09;;;;;;;2.17;0.77;;;9.80;99.90;;;;;;4990292;28;20609;-63
2020/12/24 06:34:40;;;;;;;1.90;0.90;;;9.90;99.90;;;;;;4990154;28;20339;-63
2020/12/24 06:37:13;;;;;;;5.23;1.00;;;10.00;99.90;;;;;;4990044;28;20235;-63
2020/12/24 06:39:41;;;;;;;3.30;1.83;;;10.10;99.90;;;;;;4989481;28;20234;-63
2020/12/24 06:42:29;;;;;;;3.77;1.17;;;10.10;99.90;;;;;;4989328;28;20714;-63
2020/12/24 06:44:56;;;;;;;2.93;1.87;;;10.20;99.90;;;;;;4989309;28;20222;-63
2020/12/24 06:47:22;;;;;;;3.63;1.00;;;10.00;99.90;;;;;;4989566;28;20228;-64
2020/12/24 06:49:49;;;;;;;3.53;1.10;;;10.00;99.90;;;;;;4989117;28;20200;-63
2020/12/24 06:52:27;;;;;;;4.10;1.00;;;10.10;99.90;;;;;;4989524;28;20228;-63
2020/12/24 06:55:12;;;;;;;3.23;0.83;;;10.10;99.90;;;;;;4988982;28;20679;-63
2020/12/24 06:57:38;;;;;;;4.30;0.97;;;10.20;99.90;;;;;;4989134;28;20226;-63
2020/12/24 07:00:19;;;;;;;3.40;0.90;;;10.20;99.90;;;;;;4989109;28;20224;-63
2020/12/24 07:02:46;;;;;;;5.13;1.10;;;10.20;99.90;;;;;;4989217;28;20214;-63
2020/12/24 07:05:44;;;;;;;3.93;0.80;;;10.20;99.90;;;;;;4988885;28;20211;-63
2020/12/24 07:08:11;;;;;;;4.37;1.60;;;10.10;99.90;;;;;;4988877;28;20565;-62
2020/12/24 07:10:45;;;;;;;3.83;1.97;;;10.20;99.90;;;;;;4988762;28;20231;-62
2020/12/24 07:13:29;;;;;;;4.67;1.10;;;10.30;99.90;;;;;;4988751;28;20212;-62
2020/12/24 07:15:57;;;;;;;4.17;1.50;;;10.30;99.90;;;;;;4989051;28;20198;-63
2020/12/24 07:18:24;;;;;;;3.00;1.07;;;10.40;99.90;;;;;;4988575;28;20214;-64
2020/12/24 07:20:50;;;;;;;4.07;1.40;;;10.40;99.90;;;;;;4988614;28;20227;-63
2020/12/24 07:23:27;;;;;;;3.10;1.07;;;10.30;99.90;;;;;;4988495;28;20219;-63
2020/12/24 07:25:54;;;;;;;3.87;1.20;;;10.20;99.90;;;;;;4988515;28;20562;-63
2020/12/24 07:28:20;;;;;;;3.63;1.43;;;10.30;99.90;;;;;;4988247;28;20744;-64
2020/12/24 07:30:56;;;;;;;2.23;1.00;;;10.50;99.90;;;;;;4988606;28;20235;-63
2020/12/24 07:33:22;;;;;;;4.50;2.23;;;10.50;99.90;;;;;;4988507;28;20302;-64
2020/12/24 07:35:49;;;;;;;5.60;1.27;;;10.50;99.90;;;;;;4988614;28;20216;-63
2020/12/24 07:38:18;;;;;;;4.13;1.50;;;10.60;99.90;;;;;;4988195;28;20271;-64
2020/12/24 07:40:45;;;;;;;3.03;0.90;;;10.60;99.90;;;;;;4988642;28;20231;-63
2020/12/24 07:43:11;;;;;;;4.67;1.17;;;10.50;99.90;;;;;;4988243;28;20594;-64
2020/12/24 07:45:38;;;;;;;2.57;1.17;;;10.60;99.90;;;;;;4988224;28;20679;-64
2020/12/24 07:48:14;;;;;;;5.85;1.80;;;10.70;99.90;;;;;;4988371;28;20810;-62
2020/12/24 07:50:41;;;;;;;3.73;1.30;;;10.70;99.90;;;;;;5007261;28;20360;-63
2020/12/24 07:53:09;;;;;;;3.93;1.50;;;10.70;99.90;;;;;;5007547;28;20577;-63
2020/12/24 07:55:36;;;;;;;4.23;1.77;;;10.80;99.90;;;;;;5007510;28;20671;-63
2020/12/24 07:58:09;;;;;;;4.27;1.30;;;10.80;99.90;;;;;;5007508;28;20214;-61
2020/12/24 08:00:42;;;;;;;4.00;1.20;;;10.90;99.90;;;;;;5007910;28;20231;-61
2020/12/24 08:03:09;;;;;;;4.73;1.83;;;10.90;99.90;;;;;;5007508;28;20207;-61
2020/12/24 08:05:36;;;;;;;3.43;1.30;;;10.90;99.90;;;;;;5008199;28;20759;-61
2020/12/24 08:08:02;;;;;;;6.67;1.60;;;10.80;99.90;;;;;;5010924;28;20217;-61
2020/12/24 08:10:28;;;;;;;6.93;1.50;;;10.90;99.90;;;;;;5010472;28;20718;-63
2020/12/24 08:13:03;;;;;;;4.30;0.97;;;11.00;99.90;;;;;;5011167;28;20187;-63
2020/12/24 08:15:31;;;;;;;3.67;1.07;;;11.10;99.90;;;;;;5011005;28;20286;-61
2020/12/24 08:18:00;;;;;;;4.57;0.97;;;11.20;99.90;;;;;;5010838;28;20529;-61
2020/12/24 08:20:34;;;;;;;6.07;1.03;;;11.20;99.90;;;;;;5010616;28;20243;-61
2020/12/24 08:23:17;;;;;;;6.60;1.07;;;11.10;99.90;;;;;;5011223;28;20532;-63
2020/12/24 08:25:46;;;;;;;3.07;0.90;;;11.10;99.90;;;;;;5010972;28;20198;-62
2020/12/24 08:28:12;;;;;;;5.47;1.50;;;11.00;99.90;;;;;;5010851;28;20211;-62
2020/12/24 08:30:39;;;;;;;5.03;1.50;;;11.00;99.90;;;;;;5010867;28;20260;-62
2020/12/24 08:33:06;;;;;;;2.73;0.90;;;11.00;99.90;;;;;;5010616;28;20211;-61
2020/12/24 08:35:32;;;;;;;4.10;1.40;;;11.00;99.90;;;;;;5010552;28;20207;-69
2020/12/24 08:38:12;;;;;;;4.97;1.30;;;11.10;99.90;;;;;;5010150;28;20211;-63
2020/12/24 08:40:39;;;;;;;3.77;1.10;;;11.00;99.90;;;;;;5010054;28;20756;-64
2020/12/24 08:43:07;;;;;;;4.27;0.90;;;11.00;99.90;;;;;;5010136;28;20568;-65
2020/12/24 08:45:33;;;;;;;4.50;1.10;;;11.00;99.90;;;;;;4994800;28;20216;-65
2020/12/24 08:47:59;;;;;;;4.07;1.13;;;11.10;99.90;;;;;;4971083;28;20204;-62
2020/12/24 08:50:30;;;;;;;3.80;1.10;;;11.00;99.90;;;;;;4970873;28;20232;-63
2020/12/24 08:52:56;;;;;;;7.10;1.30;;;11.10;99.90;;;;;;4971245;28;20361;-63
2020/12/24 08:55:27;;;;;;;4.77;1.10;;;10.90;99.90;;;;;;4970877;28;20750;-67
2020/12/24 08:57:55;;;;;;;5.00;1.30;;;11.00;99.90;;;;;;4971370;28;20204;-63
2020/12/24 09:00:23;;;;;;;3.47;1.10;;;10.90;99.90;;;;;;4971121;28;20259;-60
2020/12/24 09:02:49;;;;;;;3.17;0.90;;;11.10;99.90;;;;;;4970783;28;20215;-62
2020/12/24 09:05:21;;;;;;;2.13;0.80;;;10.90;99.90;;;;;;4971240;28;20209;-61
2020/12/24 09:07:48;;;;;;;1.53;0.70;;;10.90;99.90;;;;;;4970616;28;20208;-63
2020/12/24 09:10:17;;;;;;;1.70;0.70;;;11.00;99.90;;;;;;4973224;28;20212;-61
2020/12/24 09:12:45;;;;;;;2.10;0.60;;;11.00;99.90;;;;;;4973678;28;20212;-61
2020/12/24 09:15:12;;;;;;;2.23;0.97;;;11.00;99.90;;;;;;4972229;28;20676;-62
2020/12/24 09:17:49;;;;;;;1.70;0.80;;;11.10;99.90;;;;;;4971520;28;20209;-61
2020/12/24 09:20:23;;;;;;;3.90;0.90;;;11.10;99.90;;;;;;4972293;28;20224;-64
2020/12/24 09:22:50;;;;;;;2.20;0.60;;;11.10;99.90;;;;;;4972157;28;20715;-64
2020/12/24 09:25:30;;;;;;;1.93;0.70;;;11.20;99.90;;;;;;4971139;28;20632;-61
2020/12/24 09:27:57;;;;;;;3.63;0.70;;;11.10;99.90;;;;;;4971834;28;20621;-64
2020/12/24 09:30:24;;;;;;;1.67;0.60;;;11.10;99.90;;;;;;4971626;28;20589;-68
2020/12/24 09:32:55;;;;;;;3.20;1.13;;;11.10;99.90;;;;;;4971327;28;20273;-62
2020/12/24 09:35:22;;;;;;;1.47;0.60;;;11.20;99.90;;;;;;4972365;28;20597;-59
2020/12/24 09:37:48;;;;;;;7.00;4.37;;;11.30;99.90;;;;;;4972615;28;20563;-61
2020/12/24 09:40:14;;;;;;;2.27;0.60;;;11.20;99.90;;;;;;4971437;28;20240;-62
2020/12/24 09:42:41;;;;;;;2.30;0.50;;;11.30;99.90;;;;;;4980354;28;20209;-63
2020/12/24 09:45:08;;;;;;;2.07;0.63;;;11.30;99.90;;;;;;5094404;28;20204;-64
2020/12/24 09:47:34;;;;;;;2.30;0.83;;;11.40;99.90;;;;;;5096967;28;20373;-64
2020/12/24 09:50:01;;;;;;;0.87;0.60;;;11.40;99.90;;;;;;5097695;28;20246;-64
2020/12/24 09:52:27;;;;;;;5.73;0.97;;;11.40;99.90;;;;;;5098680;28;20599;-64
2020/12/24 09:54:53;;;;;;;2.90;0.90;;;11.30;99.90;;;;;;4995101;28;20215;-64
2020/12/24 09:57:20;;;;;;;2.13;0.63;;;11.40;99.90;;;;;;4997255;28;20204;-67
2020/12/24 09:59:46;;;;;;;2.10;0.60;;;11.40;99.90;;;;;;4993681;28;20227;-64
2020/12/24 10:02:13;;;;;;;1.33;0.73;;;11.30;99.90;;;;;;4995168;28;20517;-64
2020/12/24 10:04:39;;;;;;;1.73;0.60;;;11.30;99.90;;;;;;4995351;28;20208;-64
2020/12/24 10:07:05;;;;;;;1.20;0.50;;;11.10;99.90;;;;;;4994915;28;20721;-64
2020/12/24 10:09:31;;;;;;;1.63;0.63;;;11.30;99.90;;;;;;4994654;28;20477;-64
2020/12/24 10:11:58;;;;;;;2.57;0.43;;;11.10;99.90;;;;;;4993374;28;20289;-64
2020/12/24 10:14:24;;;;;;;2.37;0.90;;;11.00;99.90;;;;;;4991726;28;20245;-64
2020/12/24 10:16:50;;;;;;;2.50;0.50;;;11.10;99.90;;;;;;4993518;28;20208;-65
2020/12/24 10:19:17;;;;;;;3.33;0.77;;;11.20;99.90;;;;;;4991651;28;20227;-64
2020/12/24 10:21:43;;;;;;;1.93;0.67;;;11.30;99.90;;;;;;4993025;28;20227;-64
2020/12/24 10:24:09;;;;;;;1.50;0.40;;;11.30;99.90;;;;;;4994650;28;20222;-65
2020/12/24 10:26:35;;;;;;;1.50;0.70;;;11.40;99.90;;;;;;4996491;28;20215;-65
2020/12/24 10:29:02;;;;;;;2.63;1.00;;;11.40;99.90;;;;;;4996012;28;20211;-65
2020/12/24 10:31:28;;;;;;;3.90;1.53;;;11.40;99.90;;;;;;4990713;28;20325;-65
2020/12/24 10:33:54;;;;;;;2.03;0.70;;;11.50;99.90;;;;;;4989559;28;20214;-65
2020/12/24 10:36:24;;;;;;;5.90;3.60;;;11.50;99.90;;;;;;4990358;28;20208;-65
2020/12/24 10:38:51;;;;;;;0.83;0.47;;;11.50;99.90;;;;;;4988885;28;20760;-65
2020/12/24 10:41:18;;;;;;;4.03;1.10;;;11.40;99.90;;;;;;4989530;28;20227;-64
2020/12/24 10:43:45;;;;;;;2.33;0.53;;;11.50;99.90;;;;;;4989054;28;20207;-63
2020/12/24 10:46:15;;;;;;;1.30;0.57;;;11.50;99.90;;;;;;4989713;28;20216;-63
2020/12/24 10:48:41;;;;;;;2.47;1.20;;;11.50;99.90;;;;;;4989389;28;20235;-65
2020/12/24 10:51:08;;;;;;;1.60;0.77;;;11.60;99.90;;;;;;4989312;28;20238;-65
2020/12/24 10:53:35;;;;;;;2.67;0.70;;;11.60;99.90;;;;;;5033452;28;20247;-66
2020/12/24 10:56:02;;;;;;;1.23;0.67;;;11.50;99.90;;;;;;5091479;28;20637;-65
2020/12/24 10:58:28;;;;;;;1.67;0.50;;;11.60;99.90;;;;;;5091374;28;20208;-63
2020/12/24 11:00:54;;;;;;;2.43;1.00;;;11.40;99.90;;;;;;5091877;28;20285;-63
2020/12/24 11:03:26;;;;;;;2.93;1.23;;;11.40;99.90;;;;;;5091870;28;20204;-64
2020/12/24 11:05:52;;;;;;;3.53;1.70;;;11.40;99.90;;;;;;5091186;28;20200;-65
2020/12/24 11:08:18;;;;;;;1.93;0.77;;;11.50;99.90;;;;;;5090973;28;20591;-64
2020/12/24 11:10:45;;;;;;;1.33;0.50;;;11.50;99.90;;;;;;5070303;28;20247;-64
2020/12/24 11:13:11;;;;;;;1.70;0.60;;;11.60;99.90;;;;;;4989374;28;20211;-64
2020/12/24 11:15:39;;;;;;;1.40;0.47;;;11.60;99.90;;;;;;4988617;28;20212;-64
2020/12/24 11:18:05;;;;;;;1.70;0.60;;;11.50;99.90;;;;;;4988741;28;20215;-65
2020/12/24 11:20:31;;;;;;;1.43;0.60;;;11.40;99.90;;;;;;4988810;28;20231;-64
2020/12/24 11:22:57;;;;;;;1.43;0.40;;;11.40;99.90;;;;;;4989019;28;20207;-64
2020/12/24 11:25:23;;;;;;;4.87;1.77;;;11.20;99.90;;;;;;4988025;28;20218;-65
2020/12/24 11:27:50;;;;;;;1.77;0.40;;;11.30;99.90;;;;;;4988724;28;20698;-64
2020/12/24 11:30:17;;;;;;;1.23;0.50;;;11.30;99.90;;;;;;4988607;28;20231;-64
2020/12/24 11:32:43;;;;;;;2.63;0.87;;;11.30;99.90;;;;;;4988832;28;20215;-64
2020/12/24 11:35:10;;;;;;;0.60;0.40;;;11.60;99.90;;;;;;4988420;28;20469;-65
2020/12/24 11:37:36;;;;;;;0.67;0.40;;;11.70;99.90;;;;;;4988871;28;20253;-64
2020/12/24 11:40:03;;;;;;;2.90;1.37;;;11.80;99.90;;;;;;4987277;28;20560;-56
2020/12/24 11:42:31;;;;;;;4.17;1.80;;;12.00;99.90;;;;;;4988629;28;20577;-57
2020/12/24 11:44:58;;;;;;;5.03;2.70;;;12.20;99.90;;;;;;4987891;28;20269;-59
2020/12/24 11:47:24;;;;;;;1.47;0.87;;;12.50;99.90;;;;;;4988406;28;20208;-57
2020/12/24 11:49:51;;;;;;;6.27;2.20;;;12.90;99.90;;;;;;4988073;28;20207;-58
2020/12/24 11:52:17;;;;;;;1.97;1.03;;;13.30;99.90;;;;;;4987958;28;20793;-56
2020/12/24 11:54:43;;;;;;;3.50;2.17;;;13.60;99.90;;;;;;4988384;28;20204;-55
2020/12/24 11:57:09;;;;;;;4.20;1.53;;;13.80;99.90;;;;;;4988447;28;20203;-55
2020/12/24 11:59:35;;;;;;;2.70;1.73;;;13.90;99.90;;;;;;4987805;28;20238;-58
2020/12/24 12:02:02;;;;;;;3.93;1.20;;;13.80;99.90;;;;;;4988089;28;20231;-55
2020/12/24 12:04:28;;;;;;;2.43;1.20;;;13.80;99.80;;;;;;4987650;28;20204;-56
2020/12/24 12:06:54;;;;;;;1.63;0.77;;;13.80;99.80;;;;;;4988117;28;20207;-56
2020/12/24 12:09:21;;;;;;;1.43;1.13;;;13.80;99.60;;;;;;4988156;28;20616;-55
2020/12/24 12:11:47;;;;;;;1.73;1.10;;;13.90;99.50;;;;;;4988344;28;20236;-57
2020/12/24 12:14:13;;;;;;;1.10;0.70;;;14.00;99.80;;;;;;4988134;28;20211;-57
2020/12/24 12:16:39;;;;;;;1.50;1.03;;;13.90;99.30;;;;;;4987494;28;20671;-58
2020/12/24 12:19:07;;;;;;;1.33;0.60;;;13.90;99.40;;;;;;4987501;28;20231;-57
2020/12/24 12:21:35;;;;;;;1.53;0.80;;;14.00;99.00;;;;;;4987702;28;20232;-56
2020/12/24 12:24:02;;;;;;;2.00;0.60;;;14.00;99.10;;;;;;4987613;28;20639;-61
2020/12/24 12:26:28;;;;;;;0.63;0.40;;;14.00;99.00;;;;;;4988039;28;20212;-58
2020/12/24 12:28:54;;;;;;;1.10;0.50;;;14.10;98.80;;;;;;4987848;28;20218;-63
2020/12/24 12:31:23;;;;;;;0.73;0.47;;;14.10;98.40;;;;;;4988278;28;20234;-63
2020/12/24 12:33:51;;;;;;;1.00;0.50;;;13.80;98.40;;;;;;4987586;28;20214;-63
2020/12/24 12:36:19;;;;;;;3.90;1.03;;;13.70;98.60;;;;;;4988048;28;20212;-63
2020/12/24 12:38:46;;;;;;;0.70;0.60;;;13.60;98.90;;;;;;4987674;28;20226;-63
2020/12/24 12:41:13;;;;;;;0.53;0.40;;;13.60;99.10;;;;;;4987980;28;20264;-62
2020/12/24 12:43:39;;;;;;;0.40;0.40;;;13.50;99.30;;;;;;4987934;28;20214;-62
2020/12/24 12:46:05;;;;;;;0.90;0.40;;;13.30;99.20;;;;;;4988147;28;20208;-62
2020/12/24 12:48:31;;;;;;;0.60;0.40;;;13.20;99.50;;;;;;4987519;28;20207;-64
2020/12/24 12:50:57;;;;;;;0.63;0.30;;;13.10;99.50;;;;;;4987936;28;20641;-62